createdAt,value
2022-09-13T00:02:23.671Z,950.34
2022-09-13T00:04:49.960Z,950.34
2022-09-13T00:07:16.304Z,950.25
2022-09-13T00:09:42.644Z,950.29
2022-09-13T00:12:08.991Z,950.27
2022-09-13T00:14:35.317Z,950.19
2022-09-13T00:17:01.673Z,950.15
2022-09-13T00:19:28.012Z,950.14
2022-09-13T00:21:54.368Z,950.10
2022-09-13T00:24:20.708Z,950.11
2022-09-13T00:26:47.028Z,950.04
2022-09-13T00:29:13.369Z,950.06
2022-09-13T00:31:39.719Z,950.03
2022-09-13T00:34:06.030Z,950.01
2022-09-13T00:36:32.372Z,950.03
2022-09-13T00:38:58.696Z,950.00
2022-09-13T00:41:25.046Z,949.94
2022-09-13T00:43:51.403Z,949.96
2022-09-13T00:46:17.755Z,950.01
2022-09-13T00:48:44.094Z,950.05
2022-09-13T00:51:10.454Z,949.98
2022-09-13T00:53:36.853Z,950.01
2022-09-13T00:56:03.128Z,950.01
2022-09-13T00:58:29.453Z,950.03
2022-09-13T01:00:55.814Z,950.03
2022-09-13T01:03:22.095Z,950.01
2022-09-13T01:05:48.446Z,949.94
2022-09-13T01:08:14.768Z,949.98
2022-09-13T01:10:41.113Z,949.99
2022-09-13T01:13:07.432Z,949.97
2022-09-13T01:15:33.761Z,949.92
2022-09-13T01:18:00.106Z,949.91
2022-09-13T01:20:26.465Z,949.88
2022-09-13T01:22:52.790Z,949.90
2022-09-13T01:25:19.142Z,949.89
2022-09-13T01:27:45.461Z,949.83
2022-09-13T01:30:11.815Z,949.78
2022-09-13T01:32:38.135Z,949.81
2022-09-13T01:35:04.484Z,949.81
2022-09-13T01:37:30.856Z,949.78
2022-09-13T01:39:57.217Z,949.78
2022-09-13T01:42:23.518Z,949.83
2022-09-13T01:44:49.863Z,949.73
2022-09-13T01:47:16.206Z,949.75
2022-09-13T01:49:42.563Z,949.81
2022-09-13T01:52:08.913Z,949.78
2022-09-13T01:54:35.237Z,949.79
2022-09-13T01:57:01.563Z,949.77
2022-09-13T01:59:27.890Z,949.76
2022-09-13T02:01:54.300Z,949.79
2022-09-13T02:04:20.582Z,949.71
2022-09-13T02:06:46.898Z,949.76
2022-09-13T02:09:13.271Z,949.76
2022-09-13T02:11:39.594Z,949.71
2022-09-13T02:14:05.920Z,949.77
2022-09-13T02:16:32.337Z,949.74
2022-09-13T02:18:58.622Z,949.69
2022-09-13T02:21:24.968Z,949.70
2022-09-13T02:23:51.312Z,949.69
2022-09-13T02:26:17.637Z,949.69
2022-09-13T02:28:43.995Z,949.68
2022-09-13T02:31:10.336Z,949.67
2022-09-13T02:33:36.683Z,949.67
2022-09-13T02:36:03.043Z,949.73
2022-09-13T02:38:29.391Z,949.78
2022-09-13T02:40:55.717Z,949.69
2022-09-13T02:43:22.089Z,949.74
2022-09-13T02:45:48.481Z,949.74
2022-09-13T02:48:14.765Z,949.77
2022-09-13T02:50:41.126Z,949.79
2022-09-13T02:53:07.477Z,949.74
2022-09-13T02:55:33.796Z,949.81
2022-09-13T02:58:00.128Z,949.85
2022-09-13T03:00:26.475Z,949.77
2022-09-13T03:02:52.820Z,949.80
2022-09-13T03:05:19.207Z,949.78
2022-09-13T03:07:45.533Z,949.84
2022-09-13T03:10:11.850Z,949.87
2022-09-13T03:12:38.181Z,949.83
2022-09-13T03:15:04.504Z,949.76
2022-09-13T03:17:30.879Z,949.85
2022-09-13T03:19:57.223Z,949.87
2022-09-13T03:22:23.550Z,949.89
2022-09-13T03:24:49.878Z,949.83
2022-09-13T03:27:16.224Z,949.77
2022-09-13T03:29:42.569Z,949.83
2022-09-13T03:32:09.010Z,949.75
2022-09-13T03:34:35.302Z,949.77
2022-09-13T03:37:01.649Z,949.80
2022-09-13T03:39:28.003Z,949.81
2022-09-13T03:41:54.327Z,949.82
2022-09-13T03:44:20.668Z,949.83
2022-09-13T03:46:46.993Z,949.83
2022-09-13T03:49:13.320Z,949.88
2022-09-13T03:51:39.648Z,949.84
2022-09-13T03:54:05.989Z,949.78
2022-09-13T03:56:32.337Z,949.90
2022-09-13T03:58:58.657Z,949.87
2022-09-13T04:01:25.043Z,949.87
2022-09-13T04:03:55.845Z,949.89
2022-09-13T04:06:17.680Z,949.92
2022-09-13T04:08:44.027Z,949.94
2022-09-13T04:11:10.402Z,949.95
2022-09-13T04:13:36.749Z,950.02
2022-09-13T04:16:03.112Z,950.03
2022-09-13T04:18:29.404Z,949.97
2022-09-13T04:20:55.758Z,949.94
2022-09-13T04:23:22.077Z,949.93
2022-09-13T04:25:48.404Z,949.95
2022-09-13T04:28:14.757Z,949.99
2022-09-13T04:30:42.787Z,950.02
2022-09-13T04:33:07.438Z,949.97
2022-09-13T04:35:33.768Z,950.00
2022-09-13T04:38:00.114Z,950.08
2022-09-13T04:40:26.472Z,950.05
2022-09-13T04:42:52.853Z,950.21
2022-09-13T04:45:19.200Z,950.17
2022-09-13T04:47:45.516Z,950.19
2022-09-13T04:50:11.847Z,950.15
2022-09-13T04:52:38.169Z,950.20
2022-09-13T04:55:04.488Z,950.26
2022-09-13T04:57:30.812Z,950.28
2022-09-13T04:59:57.175Z,950.34
2022-09-13T05:02:23.553Z,950.28
2022-09-13T05:04:49.871Z,950.33
2022-09-13T05:07:16.230Z,950.34
2022-09-13T05:09:42.567Z,950.28
2022-09-13T05:12:08.912Z,950.33
2022-09-13T05:14:35.274Z,950.26
2022-09-13T05:17:01.616Z,950.25
2022-09-13T05:19:27.979Z,950.25
2022-09-13T05:21:54.313Z,950.26
2022-09-13T05:24:20.645Z,950.27
2022-09-13T05:26:47.032Z,950.25
2022-09-13T05:29:13.359Z,950.32
2022-09-13T05:31:39.781Z,950.35
2022-09-13T05:34:06.064Z,950.36
2022-09-13T05:36:32.424Z,950.29
2022-09-13T05:39:26.046Z,950.34
2022-09-13T05:41:25.097Z,950.32
2022-09-13T05:43:54.136Z,950.33
2022-09-13T05:46:17.977Z,950.22
2022-09-13T05:48:44.087Z,950.23
2022-09-13T05:51:10.439Z,950.28
2022-09-13T05:53:36.782Z,950.28
2022-09-13T05:56:03.105Z,950.29
2022-09-13T05:58:29.464Z,950.30
2022-09-13T06:00:55.866Z,950.29
2022-09-13T06:03:22.217Z,950.28
2022-09-13T06:05:48.536Z,950.28
2022-09-13T06:08:14.870Z,950.25
2022-09-13T06:10:41.196Z,950.28
2022-09-13T06:13:07.557Z,950.33
2022-09-13T06:15:33.915Z,950.39
2022-09-13T06:18:00.263Z,950.44
2022-09-13T06:20:28.802Z,950.43
2022-09-13T06:22:55.152Z,950.44
2022-09-13T06:25:21.488Z,950.41
2022-09-13T06:27:50.053Z,950.45
2022-09-13T06:30:14.296Z,950.41
2022-09-13T06:32:40.642Z,950.44
2022-09-13T06:35:07.001Z,950.45
2022-09-13T06:37:33.347Z,950.49
2022-09-13T06:39:59.733Z,950.50
2022-09-13T06:42:26.027Z,950.52
2022-09-13T06:44:52.378Z,950.57
2022-09-13T06:47:18.715Z,950.56
2022-09-13T06:49:45.063Z,950.58
2022-09-13T06:52:11.410Z,950.61
2022-09-13T06:54:37.750Z,950.61
2022-09-13T06:57:04.080Z,950.57
2022-09-13T06:59:30.491Z,950.62
2022-09-13T07:01:56.869Z,950.58
2022-09-13T07:04:23.196Z,950.62
2022-09-13T07:06:49.546Z,950.65
2022-09-13T07:09:15.878Z,950.67
2022-09-13T07:11:42.223Z,950.66
2022-09-13T07:14:08.551Z,950.71
2022-09-13T07:16:34.929Z,950.69
2022-09-13T07:19:01.314Z,950.73
2022-09-13T07:21:27.650Z,950.77
2022-09-13T07:23:53.998Z,950.74
2022-09-13T07:26:20.349Z,950.73
2022-09-13T07:28:46.777Z,950.73
2022-09-13T07:31:13.142Z,950.74
2022-09-13T07:33:39.364Z,950.79
2022-09-13T07:36:05.694Z,950.74
2022-09-13T07:38:32.026Z,950.70
2022-09-13T07:40:58.362Z,950.75
2022-09-13T07:43:24.696Z,950.78
2022-09-13T07:45:51.133Z,950.84
2022-09-13T07:48:17.512Z,950.77
2022-09-13T07:50:43.860Z,950.84
2022-09-13T07:53:10.213Z,950.82
2022-09-13T07:55:36.537Z,950.85
2022-09-13T07:58:02.895Z,950.88
2022-09-13T08:00:29.261Z,950.84
2022-09-13T08:02:55.610Z,950.90
2022-09-13T08:05:21.936Z,950.91
2022-09-13T08:07:48.343Z,950.82
2022-09-13T08:10:14.694Z,950.81
2022-09-13T08:12:41.017Z,950.80
2022-09-13T08:15:07.367Z,950.87
2022-09-13T08:17:33.729Z,950.77
2022-09-13T08:20:00.058Z,950.83
2022-09-13T08:22:26.390Z,950.81
2022-09-13T08:24:52.746Z,950.75
2022-09-13T08:27:19.089Z,950.80
2022-09-13T08:29:45.435Z,950.74
2022-09-13T08:32:11.791Z,950.69
2022-09-13T08:34:38.139Z,950.72
2022-09-13T08:37:04.813Z,950.65
2022-09-13T08:39:33.469Z,950.67
2022-09-13T08:41:57.542Z,950.65
2022-09-13T08:44:23.859Z,950.61
2022-09-13T08:46:50.197Z,950.70
2022-09-13T08:49:16.710Z,950.69
2022-09-13T08:51:42.889Z,950.65
2022-09-13T08:54:09.206Z,950.67
2022-09-13T08:56:35.533Z,950.63
2022-09-13T08:59:01.854Z,950.61
2022-09-13T09:01:28.299Z,950.61
2022-09-13T09:03:54.588Z,950.54
2022-09-13T09:06:20.931Z,950.60
2022-09-13T09:08:47.276Z,950.59
2022-09-13T09:11:13.611Z,950.64
2022-09-13T09:13:39.999Z,950.72
2022-09-13T09:16:06.426Z,950.64
2022-09-13T09:18:32.688Z,950.63
2022-09-13T09:20:59.010Z,950.61
2022-09-13T09:23:25.368Z,950.64
2022-09-13T09:25:51.711Z,950.58
2022-09-13T09:28:18.091Z,950.56
2022-09-13T09:30:44.446Z,950.59
2022-09-13T09:33:10.746Z,950.54
2022-09-13T09:35:37.082Z,950.47
2022-09-13T09:38:03.426Z,950.51
2022-09-13T09:40:31.719Z,950.44
2022-09-13T09:42:56.082Z,950.41
2022-09-13T09:45:22.427Z,950.39
2022-09-13T09:47:48.780Z,950.29
2022-09-13T09:50:15.110Z,950.38
2022-09-13T09:52:41.463Z,950.33
2022-09-13T09:55:07.791Z,950.27
2022-09-13T09:57:34.138Z,950.27
2022-09-13T10:00:00.465Z,950.26
2022-09-13T10:02:26.888Z,950.22
2022-09-13T10:04:53.212Z,950.07
2022-09-13T10:07:19.540Z,950.13
2022-09-13T10:09:45.877Z,950.12
2022-09-13T10:12:12.236Z,949.98
2022-09-13T10:14:38.567Z,950.05
2022-09-13T10:17:04.919Z,949.91
2022-09-13T10:19:31.296Z,950.03
2022-09-13T10:21:57.620Z,950.05
2022-09-13T10:24:23.958Z,950.04
2022-09-13T10:26:50.307Z,950.05
2022-09-13T10:29:16.700Z,950.05
2022-09-13T10:31:43.028Z,950.08
2022-09-13T10:34:09.390Z,949.95
2022-09-13T10:36:51.788Z,949.97
2022-09-13T10:39:02.124Z,949.97
2022-09-13T10:41:28.453Z,949.92
2022-09-13T10:43:54.812Z,949.91
2022-09-13T10:46:21.207Z,949.81
2022-09-13T10:48:47.514Z,949.79
2022-09-13T10:51:13.858Z,949.75
2022-09-13T10:53:40.204Z,949.72
2022-09-13T10:56:06.557Z,949.63
2022-09-13T10:58:32.914Z,949.64
2022-09-13T11:00:59.351Z,949.69
2022-09-13T11:03:25.567Z,949.66
2022-09-13T11:05:51.920Z,949.76
2022-09-13T11:08:18.247Z,949.74
2022-09-13T11:10:44.620Z,949.69
2022-09-13T11:13:10.987Z,949.74
2022-09-13T11:15:37.310Z,949.65
2022-09-13T11:18:03.667Z,949.58
2022-09-13T11:20:30.027Z,949.61
2022-09-13T11:22:56.353Z,949.51
2022-09-13T11:25:22.704Z,949.54
2022-09-13T11:27:49.050Z,949.51
2022-09-13T11:30:15.395Z,949.53
2022-09-13T11:32:41.742Z,949.56
2022-09-13T11:35:08.087Z,949.55
2022-09-13T11:37:34.421Z,949.46
2022-09-13T11:40:00.841Z,949.47
2022-09-13T11:42:27.374Z,949.41
2022-09-13T11:44:53.790Z,949.40
2022-09-13T11:47:20.312Z,949.40
2022-09-13T11:49:46.663Z,949.39
2022-09-13T11:52:13.039Z,949.42
2022-09-13T11:54:39.395Z,949.37
2022-09-13T11:57:05.749Z,949.37
2022-09-13T11:59:32.092Z,949.42
2022-09-13T12:01:58.528Z,949.32
2022-09-13T12:04:25.691Z,949.37
2022-09-13T12:06:51.109Z,949.35
2022-09-13T12:09:17.457Z,949.36
2022-09-13T12:11:43.810Z,949.36
2022-09-13T12:14:10.162Z,949.36
2022-09-13T12:16:36.659Z,949.31
2022-09-13T12:19:02.847Z,949.32
2022-09-13T12:21:29.182Z,949.36
2022-09-13T12:23:55.529Z,949.28
2022-09-13T12:26:21.867Z,949.30
2022-09-13T12:28:48.264Z,949.25
2022-09-13T12:31:14.614Z,949.30
2022-09-13T12:33:40.940Z,949.30
2022-09-13T12:36:07.358Z,949.27
2022-09-13T12:38:33.695Z,949.19
2022-09-13T12:41:00.072Z,949.29
2022-09-13T12:43:26.384Z,949.27
2022-09-13T12:45:52.747Z,949.23
2022-09-13T12:48:19.481Z,949.21
2022-09-13T12:50:45.890Z,949.15
2022-09-13T12:53:12.163Z,949.17
2022-09-13T12:55:47.441Z,949.14
2022-09-13T12:58:04.936Z,949.23
2022-09-13T13:00:31.259Z,949.27
2022-09-13T13:02:57.623Z,949.29
2022-09-13T13:05:23.953Z,949.27
2022-09-13T13:07:50.290Z,949.23
2022-09-13T13:10:16.622Z,949.30
2022-09-13T13:12:42.974Z,949.29
2022-09-13T13:15:09.306Z,949.22
2022-09-13T13:17:35.648Z,949.30
2022-09-13T13:20:02.001Z,949.38
2022-09-13T13:22:28.326Z,949.29
2022-09-13T13:24:54.717Z,949.29
2022-09-13T13:27:21.058Z,949.32
2022-09-13T13:29:47.404Z,949.21
2022-09-13T13:32:13.771Z,949.20
2022-09-13T13:34:40.111Z,949.36
2022-09-13T13:37:06.464Z,949.31
2022-09-13T13:39:32.794Z,949.40
2022-09-13T13:41:59.154Z,949.31
2022-09-13T13:44:25.491Z,949.38
2022-09-13T13:46:51.834Z,949.35
2022-09-13T13:49:18.214Z,949.37
2022-09-13T13:51:44.567Z,949.37
2022-09-13T13:54:10.931Z,949.37
2022-09-13T13:56:37.284Z,949.34
2022-09-13T13:59:03.630Z,949.41
2022-09-13T14:01:29.961Z,949.41
2022-09-13T14:03:56.322Z,949.37
2022-09-13T14:06:23.145Z,949.27
2022-09-13T14:08:49.587Z,949.38
2022-09-13T14:11:15.871Z,949.31
2022-09-13T14:13:42.271Z,949.40
2022-09-13T14:16:08.578Z,949.29
2022-09-13T14:18:34.989Z,949.35
2022-09-13T14:21:01.278Z,949.34
2022-09-13T14:23:27.631Z,949.38
2022-09-13T14:25:53.993Z,949.48
2022-09-13T14:28:20.351Z,949.52
2022-09-13T14:30:46.700Z,949.43
2022-09-13T14:33:13.066Z,949.49
2022-09-13T14:35:39.390Z,949.48
2022-09-13T14:38:05.724Z,949.50
2022-09-13T14:40:32.129Z,949.43
2022-09-13T14:42:58.403Z,949.41
2022-09-13T14:45:24.757Z,949.38
2022-09-13T14:47:51.157Z,949.40
2022-09-13T14:50:17.443Z,949.46
2022-09-13T14:52:43.802Z,949.47
2022-09-13T14:55:10.162Z,949.48
2022-09-13T14:57:36.487Z,949.44
2022-09-13T15:00:02.842Z,949.48
2022-09-13T15:02:29.354Z,949.48
2022-09-13T15:04:55.763Z,949.52
2022-09-13T15:07:22.074Z,949.58
2022-09-13T15:09:48.420Z,949.58
2022-09-13T15:12:14.747Z,949.59
2022-09-13T15:14:41.082Z,949.55
2022-09-13T15:17:07.427Z,949.51
2022-09-13T15:19:33.764Z,949.53
2022-09-13T15:22:00.117Z,949.55
2022-09-13T15:24:26.440Z,949.50
2022-09-13T15:26:52.799Z,949.55
2022-09-13T15:29:19.148Z,949.51
2022-09-13T15:31:45.538Z,949.51
2022-09-13T15:34:11.842Z,949.48
2022-09-13T15:36:38.175Z,949.51
2022-09-13T15:39:04.526Z,949.50
2022-09-13T15:41:30.899Z,949.53
2022-09-13T15:43:57.274Z,949.51
2022-09-13T15:46:23.631Z,949.55
2022-09-13T15:48:49.947Z,949.59
2022-09-13T15:51:16.320Z,949.50
2022-09-13T15:53:42.646Z,949.52
2022-09-13T15:56:08.996Z,949.55
2022-09-13T15:58:35.333Z,949.63
2022-09-13T16:01:01.719Z,949.67
2022-09-13T16:03:27.986Z,949.71
2022-09-13T16:05:54.355Z,949.67
2022-09-13T16:08:20.679Z,949.70
2022-09-13T16:10:47.028Z,949.77
2022-09-13T16:13:13.341Z,949.76
2022-09-13T16:15:39.671Z,949.81
2022-09-13T16:18:06.032Z,949.82
2022-09-13T16:20:32.379Z,949.73
2022-09-13T16:22:58.691Z,949.79
2022-09-13T16:25:25.058Z,949.72
2022-09-13T16:27:51.410Z,949.77
2022-09-13T16:30:17.759Z,949.74
2022-09-13T16:32:44.139Z,949.78
2022-09-13T16:35:10.490Z,949.74
2022-09-13T16:37:36.839Z,949.84
2022-09-13T16:40:03.223Z,949.78
2022-09-13T16:42:29.548Z,949.81
2022-09-13T16:44:55.902Z,949.86
2022-09-13T16:47:22.267Z,949.85
2022-09-13T16:49:48.605Z,949.92
2022-09-13T16:52:14.933Z,949.93
2022-09-13T16:54:41.285Z,949.95
2022-09-13T16:57:07.634Z,949.89
2022-09-13T16:59:33.969Z,950.01
2022-09-13T17:02:00.418Z,950.02
2022-09-13T17:04:26.677Z,950.11
2022-09-13T17:06:53.025Z,950.10
2022-09-13T17:09:19.358Z,950.19
2022-09-13T17:11:45.691Z,950.19
2022-09-13T17:14:12.044Z,950.28
2022-09-13T17:16:38.488Z,950.31
2022-09-13T17:19:04.727Z,950.42
2022-09-13T17:21:31.061Z,950.40
2022-09-13T17:23:57.414Z,950.43
2022-09-13T17:26:23.771Z,950.43
2022-09-13T17:28:50.109Z,950.47
2022-09-13T17:31:16.458Z,950.50
2022-09-13T17:33:42.834Z,950.48
2022-09-13T17:36:09.152Z,950.50
2022-09-13T17:38:35.469Z,950.54
2022-09-13T17:41:01.793Z,950.57
2022-09-13T17:43:28.138Z,950.60
2022-09-13T17:45:54.486Z,950.61
2022-09-13T17:48:20.812Z,950.60
2022-09-13T17:50:47.200Z,950.62
2022-09-13T17:53:13.536Z,950.66
2022-09-13T17:55:39.867Z,950.64
2022-09-13T17:58:06.258Z,950.70
2022-09-13T18:00:32.590Z,950.71
2022-09-13T18:02:58.975Z,950.70
2022-09-13T18:05:25.306Z,950.79
2022-09-13T18:07:51.667Z,950.78
2022-09-13T18:10:45.165Z,950.78
2022-09-13T18:12:44.329Z,950.77
2022-09-13T18:15:10.667Z,950.83
2022-09-13T18:17:37.003Z,950.83
2022-09-13T18:20:03.374Z,950.85
2022-09-13T18:22:29.718Z,950.81
2022-09-13T18:24:56.063Z,950.87
2022-09-13T18:27:22.430Z,950.82
2022-09-13T18:29:48.768Z,950.85
2022-09-13T18:32:15.098Z,950.85
2022-09-13T18:34:41.461Z,950.87
2022-09-13T18:37:07.789Z,950.93
2022-09-13T18:39:34.118Z,950.94
2022-09-13T18:42:00.611Z,950.93
2022-09-13T18:44:26.973Z,950.92
2022-09-13T18:46:53.308Z,950.93
2022-09-13T18:49:19.697Z,950.89
2022-09-13T18:51:46.019Z,950.96
2022-09-13T18:54:12.344Z,950.97
2022-09-13T18:56:38.719Z,951.03
2022-09-13T18:59:05.056Z,951.02
2022-09-13T19:01:31.517Z,951.08
2022-09-13T19:03:57.729Z,951.07
2022-09-13T19:06:24.048Z,951.15
2022-09-13T19:08:50.392Z,951.12
2022-09-13T19:11:42.089Z,951.10
2022-09-13T19:13:43.124Z,951.09
2022-09-13T19:16:09.506Z,951.07
2022-09-13T19:18:35.798Z,951.10
2022-09-13T19:21:02.139Z,951.04
2022-09-13T19:23:43.150Z,951.06
2022-09-13T19:25:54.829Z,951.13
2022-09-13T19:28:21.194Z,951.03
2022-09-13T19:30:47.559Z,950.99
2022-09-13T19:33:13.884Z,951.01
2022-09-13T19:35:40.225Z,951.07
2022-09-13T19:38:06.917Z,951.06
2022-09-13T19:40:33.280Z,951.13
2022-09-13T19:42:59.612Z,951.17
2022-09-13T19:45:25.947Z,951.13
2022-09-13T19:48:34.767Z,951.17
2022-09-13T19:50:18.660Z,951.14
2022-09-13T19:52:44.988Z,951.20
2022-09-13T19:55:11.311Z,951.24
2022-09-13T19:57:39.951Z,951.27
2022-09-13T20:00:03.991Z,951.22
2022-09-13T20:02:30.342Z,951.24
2022-09-13T20:04:56.799Z,951.22
2022-09-13T20:07:23.045Z,951.19
2022-09-13T20:09:49.387Z,951.20
2022-09-13T20:12:15.751Z,951.18
2022-09-13T20:14:42.079Z,951.13
2022-09-13T20:17:08.653Z,951.10
2022-09-13T20:19:47.587Z,951.14
2022-09-13T20:22:01.313Z,951.17
2022-09-13T20:24:27.661Z,951.22
2022-09-13T20:26:54.223Z,951.21
2022-09-13T20:29:20.700Z,951.27
2022-09-13T20:31:47.133Z,951.22
2022-09-13T20:34:13.510Z,951.27
2022-09-13T20:36:40.036Z,951.19
2022-09-13T20:39:06.627Z,951.33
2022-09-13T20:41:33.000Z,951.33
2022-09-13T20:43:59.329Z,951.31
2022-09-13T20:46:25.736Z,951.36
2022-09-13T20:48:52.023Z,951.39
2022-09-13T20:51:18.345Z,951.40
2022-09-13T20:53:44.663Z,951.39
2022-09-13T20:56:11.011Z,951.34
2022-09-13T20:58:37.347Z,951.40
2022-09-13T21:01:03.737Z,951.47
2022-09-13T21:03:30.031Z,951.45
2022-09-13T21:05:56.377Z,951.55
2022-09-13T21:08:22.722Z,951.54
2022-09-13T21:10:49.048Z,951.55
2022-09-13T21:13:17.853Z,951.51
2022-09-13T21:15:44.179Z,951.56
2022-09-13T21:18:10.523Z,951.52
2022-09-13T21:20:36.902Z,951.53
2022-09-13T21:23:03.249Z,951.55
2022-09-13T21:25:29.565Z,951.48
2022-09-13T21:27:55.909Z,951.51
2022-09-13T21:30:22.250Z,951.43
2022-09-13T21:32:48.582Z,951.47
2022-09-13T21:35:14.939Z,951.49
2022-09-13T21:37:41.274Z,951.46
2022-09-13T21:40:07.650Z,951.46
2022-09-13T21:42:33.948Z,951.42
2022-09-13T21:45:00.293Z,951.45
2022-09-13T21:47:26.606Z,951.38
2022-09-13T21:49:52.932Z,951.44
2022-09-13T21:52:19.274Z,951.39
2022-09-13T21:54:45.616Z,951.37
2022-09-13T21:57:11.970Z,951.33
2022-09-13T21:59:38.313Z,951.29
2022-09-13T22:02:04.680Z,951.34
2022-09-13T22:04:31.044Z,951.34
2022-09-13T22:06:57.377Z,951.34
2022-09-13T22:09:23.710Z,951.36
2022-09-13T22:11:50.087Z,951.33
2022-09-13T22:14:16.432Z,951.38
2022-09-13T22:16:42.817Z,951.37
2022-09-13T22:19:09.576Z,951.40
2022-09-13T22:21:35.443Z,951.39
2022-09-13T22:24:01.798Z,951.37
2022-09-13T22:26:28.142Z,951.34
2022-09-13T22:28:54.467Z,951.37
2022-09-13T22:31:20.903Z,951.37
2022-09-13T22:33:47.217Z,951.37
2022-09-13T22:36:13.476Z,951.39
2022-09-13T22:38:39.864Z,951.34
2022-09-13T22:41:06.208Z,951.36
2022-09-13T22:43:32.527Z,951.37
2022-09-13T22:45:58.897Z,951.39
2022-09-13T22:48:25.211Z,951.34
2022-09-13T22:50:51.537Z,951.46
2022-09-13T22:53:17.862Z,951.44
2022-09-13T22:55:44.183Z,951.40
2022-09-13T22:58:10.512Z,951.36
2022-09-13T23:00:36.860Z,951.35
2022-09-13T23:03:03.217Z,951.34
2022-09-13T23:05:29.564Z,951.43
2022-09-13T23:07:55.910Z,951.42
2022-09-13T23:10:22.254Z,951.39
2022-09-13T23:12:48.602Z,951.39
2022-09-13T23:15:14.914Z,951.40
2022-09-13T23:17:41.246Z,951.36
2022-09-13T23:20:07.627Z,951.40
2022-09-13T23:22:33.950Z,951.46
2022-09-13T23:25:00.291Z,951.44
2022-09-13T23:27:26.618Z,951.43
2022-09-13T23:29:52.984Z,951.42
2022-09-13T23:32:19.305Z,951.43
2022-09-13T23:34:45.621Z,951.45
2022-09-13T23:37:11.951Z,951.41
2022-09-13T23:39:38.294Z,951.55
2022-09-13T23:42:04.677Z,951.55
2022-09-13T23:44:31.017Z,951.58
2022-09-13T23:46:57.337Z,951.54
2022-09-13T23:49:23.703Z,951.45
2022-09-13T23:51:50.051Z,951.42
2022-09-13T23:54:16.410Z,951.46
2022-09-13T23:56:42.740Z,951.47
2022-09-13T23:59:09.087Z,951.52
